createdAt,value
2019-03-19T00:02:18.282Z,101972.66
2019-03-19T00:04:48.880Z,101977.05
2019-03-19T00:07:21.012Z,101976.63
2019-03-19T00:09:51.171Z,101973.97
2019-03-19T00:12:22.621Z,101966.09
2019-03-19T00:14:53.622Z,101967.84
2019-03-19T00:17:25.176Z,101973.58
2019-03-19T00:19:56.406Z,101974.93
2019-03-19T00:22:27.935Z,101974.02
2019-03-19T00:24:58.451Z,101969.16
2019-03-19T00:27:28.610Z,101973.58
2019-03-19T00:29:59.672Z,101972.69
2019-03-19T00:32:30.322Z,101974.45
2019-03-19T00:35:00.495Z,101971.40
2019-03-19T00:37:31.241Z,101979.80
2019-03-19T00:40:04.445Z,101977.59
2019-03-19T00:42:35.050Z,101980.66
2019-03-19T00:45:11.991Z,101982.84
2019-03-19T00:47:42.702Z,101981.12
2019-03-19T00:50:13.045Z,101985.06
2019-03-19T00:52:44.563Z,101986.80
2019-03-19T00:55:15.424Z,101981.50
2019-03-19T00:57:45.604Z,101981.95
2019-03-19T01:00:15.857Z,101984.16
2019-03-19T01:02:46.459Z,101985.92
2019-03-19T01:05:16.705Z,101992.55
2019-03-19T01:07:47.975Z,101983.72
2019-03-19T01:10:18.233Z,101988.59
2019-03-19T01:12:52.241Z,101999.63
2019-03-19T01:15:23.676Z,102005.33
2019-03-19T01:17:56.152Z,102010.63
2019-03-19T01:20:30.387Z,102009.76
2019-03-19T01:23:01.549Z,102013.73
2019-03-19T01:25:35.123Z,102016.81
2019-03-19T01:28:09.353Z,102012.38
2019-03-19T01:30:39.948Z,102007.09
2019-03-19T01:33:10.235Z,102012.85
2019-03-19T01:35:42.326Z,102012.41
2019-03-19T01:38:13.445Z,102021.20
2019-03-19T01:40:45.694Z,102008.87
2019-03-19T01:43:15.917Z,102008.00
2019-03-19T01:45:47.518Z,102017.26
2019-03-19T01:48:18.346Z,102019.45
2019-03-19T01:50:48.857Z,102028.70
2019-03-19T01:53:20.932Z,102026.52
2019-03-19T01:55:53.036Z,102017.71
2019-03-19T01:58:26.111Z,102020.33
2019-03-19T02:00:56.679Z,102020.78
2019-03-19T02:03:28.706Z,102020.79
2019-03-19T02:06:00.010Z,102023.88
2019-03-19T02:08:32.079Z,102030.03
2019-03-19T02:11:03.506Z,102030.92
2019-03-19T02:13:35.601Z,102037.08
2019-03-19T02:16:08.539Z,102041.51
2019-03-19T02:18:40.622Z,102039.73
2019-03-19T02:21:12.491Z,102039.73
2019-03-19T02:23:45.397Z,102046.78
2019-03-19T02:26:17.892Z,102038.84
2019-03-19T02:28:48.178Z,102043.69
2019-03-19T02:31:19.575Z,102048.97
2019-03-19T02:33:50.841Z,102049.41
2019-03-19T02:36:22.635Z,102047.63
2019-03-19T02:38:54.604Z,102049.41
2019-03-19T02:41:25.265Z,102051.59
2019-03-19T02:43:56.483Z,102053.80
2019-03-19T02:46:26.654Z,102050.23
2019-03-19T02:48:59.905Z,102056.80
2019-03-19T02:51:34.157Z,102051.98
2019-03-19T02:54:07.183Z,102051.52
2019-03-19T02:56:41.881Z,102055.91
2019-03-19T02:59:13.845Z,102059.86
2019-03-19T03:01:47.226Z,102060.31
2019-03-19T03:04:19.059Z,102065.57
2019-03-19T03:06:49.818Z,102090.66
2019-03-19T03:09:22.070Z,102085.70
2019-03-19T03:11:52.571Z,102091.88
2019-03-19T03:14:23.491Z,102087.80
2019-03-19T03:16:53.656Z,102097.13
2019-03-19T03:19:26.644Z,102101.93
2019-03-19T03:21:58.950Z,102106.86
2019-03-19T03:24:31.777Z,102106.41
2019-03-19T03:27:03.405Z,102103.75
2019-03-19T03:29:35.404Z,102109.94
2019-03-19T03:32:05.938Z,102114.33
2019-03-19T03:34:38.300Z,102107.27
2019-03-19T03:37:10.420Z,102105.50
2019-03-19T03:39:41.917Z,102114.74
2019-03-19T03:42:12.122Z,102120.05
2019-03-19T03:44:42.679Z,102119.59
2019-03-19T03:47:14.713Z,102118.03
2019-03-19T03:49:47.771Z,102111.44
2019-03-19T03:52:18.273Z,102119.88
2019-03-19T03:54:50.516Z,102121.61
2019-03-19T03:57:21.683Z,102122.89
2019-03-19T03:59:52.399Z,102129.40
2019-03-19T04:02:22.575Z,102131.58
2019-03-19T04:04:52.716Z,102146.91
2019-03-19T04:07:22.880Z,102152.16
2019-03-19T04:09:53.546Z,102149.94
2019-03-19T04:12:24.133Z,102149.35
2019-03-19T04:14:54.802Z,102144.81
2019-03-19T04:17:24.974Z,102149.22
2019-03-19T04:19:55.983Z,102151.48
2019-03-19T04:22:26.854Z,102156.75
2019-03-19T04:24:57.439Z,102161.25
2019-03-19T04:27:28.637Z,102156.77
2019-03-19T04:30:02.208Z,102155.86
2019-03-19T04:32:34.472Z,102168.68
2019-03-19T04:35:06.887Z,102162.39
2019-03-19T04:37:40.820Z,102169.05
2019-03-19T04:40:12.002Z,102163.58
2019-03-19T04:42:44.294Z,102159.41
2019-03-19T04:45:18.835Z,102151.38
2019-03-19T04:47:50.010Z,102152.37
2019-03-19T04:50:22.044Z,102160.42
2019-03-19T04:52:53.263Z,102167.44
2019-03-19T04:55:23.499Z,102164.06
2019-03-19T04:57:54.666Z,102159.10
2019-03-19T05:00:26.071Z,102167.52
2019-03-19T05:02:57.014Z,102177.86
2019-03-19T05:05:28.528Z,102178.41
2019-03-19T05:08:03.476Z,102182.06
2019-03-19T05:10:35.719Z,102178.64
2019-03-19T05:13:06.610Z,102173.77
2019-03-19T05:15:41.048Z,102185.97
2019-03-19T05:18:11.542Z,102185.16
2019-03-19T05:20:43.059Z,102187.80
2019-03-19T05:23:13.868Z,102184.78
2019-03-19T05:25:47.126Z,102183.09
2019-03-19T05:28:18.506Z,102189.22
2019-03-19T05:30:53.025Z,102196.94
2019-03-19T05:33:23.969Z,102196.19
2019-03-19T05:35:55.784Z,102204.38
2019-03-19T05:38:28.226Z,102207.90
2019-03-19T05:41:00.925Z,102203.03
2019-03-19T05:43:32.013Z,102203.16
2019-03-19T05:46:04.444Z,102200.14
2019-03-19T05:48:34.666Z,102216.34
2019-03-19T05:51:05.420Z,102218.66
2019-03-19T05:53:36.566Z,102217.33
2019-03-19T05:56:13.774Z,102218.22
2019-03-19T05:58:47.070Z,102208.14
2019-03-19T06:01:19.813Z,102217.58
2019-03-19T06:03:51.803Z,102203.73
2019-03-19T06:06:27.092Z,102205.78
2019-03-19T06:09:07.142Z,102208.58
2019-03-19T06:11:38.036Z,102207.36
2019-03-19T06:14:12.760Z,102212.79
2019-03-19T06:16:45.357Z,102223.11
2019-03-19T06:19:17.538Z,102240.71
2019-03-19T06:21:50.718Z,102245.48
2019-03-19T06:24:22.424Z,102255.33
2019-03-19T06:26:53.216Z,102262.33
2019-03-19T06:29:23.732Z,102254.14
2019-03-19T06:31:55.401Z,102252.06
2019-03-19T06:34:27.276Z,102248.80
2019-03-19T06:36:59.503Z,102253.69
2019-03-19T06:39:32.530Z,102260.15
2019-03-19T06:42:03.466Z,102261.27
2019-03-19T06:44:35.970Z,102259.33
2019-03-19T06:47:09.476Z,102266.09
2019-03-19T06:49:40.040Z,102264.02
2019-03-19T06:52:11.871Z,102272.26
2019-03-19T06:54:42.366Z,102276.98
2019-03-19T06:57:16.700Z,102283.33
2019-03-19T06:59:48.626Z,102289.29
2019-03-19T07:02:20.581Z,102285.81
2019-03-19T07:04:52.144Z,102289.57
2019-03-19T07:07:25.193Z,102292.62
2019-03-19T07:09:55.354Z,102300.10
2019-03-19T07:12:27.966Z,102302.65
2019-03-19T07:14:59.464Z,102309.57
2019-03-19T07:17:31.649Z,102306.48
2019-03-19T07:20:02.635Z,102303.72
2019-03-19T07:22:34.669Z,102295.97
2019-03-19T07:25:07.340Z,102298.16
2019-03-19T07:27:39.273Z,102304.89
2019-03-19T07:30:25.416Z,102316.20
2019-03-19T07:32:58.124Z,102319.80
2019-03-19T07:35:29.704Z,102318.87
2019-03-19T07:38:00.985Z,102325.90
2019-03-19T07:40:34.078Z,102322.28
2019-03-19T07:43:06.152Z,102331.73
2019-03-19T07:45:36.918Z,102330.66
2019-03-19T07:48:08.463Z,102338.10
2019-03-19T07:50:39.052Z,102330.08
2019-03-19T07:53:09.580Z,102340.31
2019-03-19T07:55:40.665Z,102337.66
2019-03-19T07:58:12.303Z,102336.83
2019-03-19T08:00:45.213Z,102334.63
2019-03-19T08:03:18.156Z,102326.20
2019-03-19T08:05:48.819Z,102332.03
2019-03-19T08:08:19.095Z,102344.79
2019-03-19T08:10:50.630Z,102335.59
2019-03-19T08:13:24.628Z,102332.34
2019-03-19T08:15:58.053Z,102334.16
2019-03-19T08:18:29.888Z,102336.05
2019-03-19T08:21:05.697Z,102333.61
2019-03-19T08:23:40.565Z,102332.48
2019-03-19T08:26:13.296Z,102331.42
2019-03-19T08:28:55.022Z,102336.80
2019-03-19T08:31:19.314Z,102340.85
2019-03-19T08:33:55.363Z,102345.09
2019-03-19T08:36:27.562Z,102341.08
2019-03-19T08:38:59.377Z,102346.63
2019-03-19T08:41:31.955Z,102339.09
2019-03-19T08:44:03.187Z,102346.13
2019-03-19T08:46:33.736Z,102350.58
2019-03-19T08:49:06.470Z,102351.56
2019-03-19T08:51:38.197Z,102353.86
2019-03-19T08:54:09.398Z,102351.99
2019-03-19T08:56:40.857Z,102355.64
2019-03-19T08:59:25.466Z,102352.40
2019-03-19T09:01:55.480Z,102347.14
2019-03-19T09:04:28.116Z,102352.92
2019-03-19T09:06:59.163Z,102356.33
2019-03-19T09:09:33.599Z,102356.40
2019-03-19T09:12:08.459Z,102364.45
2019-03-19T09:14:45.208Z,102368.52
2019-03-19T09:17:19.583Z,102377.83
2019-03-19T09:19:57.487Z,102382.70
2019-03-19T09:22:31.704Z,102383.59
2019-03-19T09:25:04.881Z,102381.39
2019-03-19T09:27:40.581Z,102378.30
2019-03-19T09:30:16.630Z,102387.11
2019-03-19T09:32:48.341Z,102393.22
2019-03-19T09:35:19.895Z,102387.48
2019-03-19T09:37:58.435Z,102389.62
2019-03-19T09:40:27.127Z,102390.96
2019-03-19T09:42:58.359Z,102384.63
2019-03-19T09:45:33.037Z,102382.44
2019-03-19T09:48:06.449Z,102391.13
2019-03-19T09:50:38.661Z,102393.76
2019-03-19T09:53:09.972Z,102394.64
2019-03-19T09:55:42.275Z,102391.92
2019-03-19T09:58:13.332Z,102395.40
2019-03-19T10:00:46.129Z,102389.16
2019-03-19T10:03:18.659Z,102393.66
2019-03-19T10:05:52.271Z,102402.62
2019-03-19T10:08:23.210Z,102405.67
2019-03-19T10:10:54.416Z,102407.27
2019-03-19T10:13:27.456Z,102401.61
2019-03-19T10:15:58.692Z,102409.16
2019-03-19T10:18:30.916Z,102406.70
2019-03-19T10:21:02.683Z,102405.89
2019-03-19T10:23:34.718Z,102396.41
2019-03-19T10:26:10.228Z,102406.89
2019-03-19T10:28:59.297Z,102405.58
2019-03-19T10:31:36.572Z,102401.47
2019-03-19T10:34:10.182Z,102396.10
2019-03-19T10:36:46.517Z,102397.88
2019-03-19T10:39:21.319Z,102396.95
2019-03-19T10:41:54.341Z,102394.14
2019-03-19T10:44:26.685Z,102401.12
2019-03-19T10:46:57.820Z,102398.23
2019-03-19T10:49:28.419Z,102398.25
2019-03-19T10:52:01.162Z,102385.21
2019-03-19T10:54:31.757Z,102391.30
2019-03-19T10:57:02.099Z,102404.00
2019-03-19T10:59:32.765Z,102397.62
2019-03-19T11:02:04.379Z,102402.41
2019-03-19T11:04:34.847Z,102395.52
2019-03-19T11:07:07.490Z,102403.23
2019-03-19T11:09:38.485Z,102400.42
2019-03-19T11:12:10.656Z,102417.13
2019-03-19T11:14:41.765Z,102409.89
2019-03-19T11:17:12.766Z,102412.36
2019-03-19T11:19:42.979Z,102412.36
2019-03-19T11:22:13.674Z,102414.26
2019-03-19T11:24:45.240Z,102416.97
2019-03-19T11:27:15.578Z,102408.94
2019-03-19T11:29:47.896Z,102410.99
2019-03-19T11:32:19.319Z,102418.45
2019-03-19T11:34:52.495Z,102421.76
2019-03-19T11:37:25.974Z,102416.28
2019-03-19T11:39:59.254Z,102408.70
2019-03-19T11:42:30.999Z,102410.86
2019-03-19T11:45:02.141Z,102405.41
2019-03-19T11:47:34.774Z,102400.14
2019-03-19T11:50:08.131Z,102403.03
2019-03-19T11:52:40.255Z,102400.33
2019-03-19T11:55:14.018Z,102399.80
2019-03-19T11:57:46.164Z,102390.94
2019-03-19T12:00:28.774Z,102401.21
2019-03-19T12:03:10.890Z,102402.75
2019-03-19T12:05:32.700Z,102401.80
2019-03-19T12:08:03.192Z,102397.38
2019-03-19T12:10:35.860Z,102407.67
2019-03-19T12:13:08.288Z,102397.37
2019-03-19T12:15:38.910Z,102410.04
2019-03-19T12:18:10.722Z,102399.87
2019-03-19T12:20:41.260Z,102399.20
2019-03-19T12:23:11.452Z,102398.98
2019-03-19T12:25:42.866Z,102394.05
2019-03-19T12:28:13.813Z,102402.91
2019-03-19T12:30:46.664Z,102389.27
2019-03-19T12:33:18.245Z,102384.02
2019-03-19T12:35:48.511Z,102383.55
2019-03-19T12:38:19.072Z,102387.73
2019-03-19T12:40:52.986Z,102392.55
2019-03-19T12:43:23.637Z,102388.00
2019-03-19T12:45:54.283Z,102385.70
2019-03-19T12:48:26.226Z,102386.02
2019-03-19T12:50:56.474Z,102389.95
2019-03-19T12:53:27.967Z,102392.30
2019-03-19T12:55:58.607Z,102391.20
2019-03-19T12:58:29.736Z,102399.48
2019-03-19T13:00:59.938Z,102407.36
2019-03-19T13:03:30.471Z,102403.91
2019-03-19T13:06:00.679Z,102398.39
2019-03-19T13:08:30.901Z,102394.95
2019-03-19T13:11:01.146Z,102401.44
2019-03-19T13:13:31.907Z,102393.79
2019-03-19T13:16:02.442Z,102400.65
2019-03-19T13:18:33.673Z,102401.97
2019-03-19T13:21:03.841Z,102408.34
2019-03-19T13:23:34.019Z,102408.53
2019-03-19T13:26:05.047Z,102412.38
2019-03-19T13:28:35.810Z,102415.88
2019-03-19T13:31:08.460Z,102415.67
2019-03-19T13:33:39.746Z,102414.37
2019-03-19T13:36:10.402Z,102417.59
2019-03-19T13:38:43.242Z,102420.69
2019-03-19T13:41:14.005Z,102426.81
2019-03-19T13:43:44.894Z,102415.70
2019-03-19T13:46:15.409Z,102416.97
2019-03-19T13:48:47.169Z,102416.31
2019-03-19T13:51:18.789Z,102414.02
2019-03-19T13:53:57.231Z,102417.19
2019-03-19T13:56:33.123Z,102412.72
2019-03-19T13:59:11.132Z,102417.21
2019-03-19T14:01:44.115Z,102417.42
2019-03-19T14:04:15.905Z,102410.44
2019-03-19T14:06:46.696Z,102413.28
2019-03-19T14:09:18.496Z,102412.25
2019-03-19T14:11:48.698Z,102412.38
2019-03-19T14:14:19.799Z,102406.07
2019-03-19T14:16:50.000Z,102398.98
2019-03-19T14:19:20.188Z,102402.14
2019-03-19T14:21:52.054Z,102409.95
2019-03-19T14:24:22.739Z,102402.14
2019-03-19T14:26:56.297Z,102412.96
2019-03-19T14:29:27.765Z,102416.95
2019-03-19T14:31:59.142Z,102413.37
2019-03-19T14:34:30.109Z,102410.82
2019-03-19T14:37:01.045Z,102409.94
2019-03-19T14:39:31.214Z,102406.52
2019-03-19T14:42:01.923Z,102399.41
2019-03-19T14:44:34.171Z,102397.19
2019-03-19T14:47:05.014Z,102394.69
2019-03-19T14:49:46.079Z,102386.20
2019-03-19T14:52:07.941Z,102387.91
2019-03-19T14:54:38.142Z,102385.55
2019-03-19T14:57:08.353Z,102382.20
2019-03-19T14:59:39.289Z,102378.56
2019-03-19T15:02:09.490Z,102380.02
2019-03-19T15:04:40.713Z,102375.86
2019-03-19T15:07:10.898Z,102375.53
2019-03-19T15:09:41.102Z,102387.16
2019-03-19T15:12:13.560Z,102372.93
2019-03-19T15:14:48.616Z,102372.69
2019-03-19T15:17:19.025Z,102365.06
2019-03-19T15:19:49.266Z,102373.01
2019-03-19T15:22:19.475Z,102369.30
2019-03-19T15:24:50.533Z,102369.72
2019-03-19T15:27:21.644Z,102376.36
2019-03-19T15:29:52.402Z,102374.28
2019-03-19T15:32:27.163Z,102375.59
2019-03-19T15:34:57.188Z,102374.01
2019-03-19T15:37:27.365Z,102375.91
2019-03-19T15:39:58.078Z,102374.29
2019-03-19T15:42:32.708Z,102378.20
2019-03-19T15:45:04.362Z,102378.78
2019-03-19T15:47:34.634Z,102369.02
2019-03-19T15:50:10.916Z,102371.38
2019-03-19T15:52:42.002Z,102366.55
2019-03-19T15:55:13.582Z,102373.67
2019-03-19T15:57:43.859Z,102374.32
2019-03-19T16:00:15.599Z,102370.98
2019-03-19T16:02:46.661Z,102373.30
2019-03-19T16:05:17.473Z,102374.03
2019-03-19T16:07:52.004Z,102376.19
2019-03-19T16:10:23.696Z,102375.50
2019-03-19T16:12:54.191Z,102378.87
2019-03-19T16:15:24.477Z,102372.11
2019-03-19T16:17:55.430Z,102377.30
2019-03-19T16:20:28.162Z,102383.77
2019-03-19T16:22:58.413Z,102384.70
2019-03-19T16:25:28.566Z,102385.98
2019-03-19T16:28:00.775Z,102384.11
2019-03-19T16:30:33.481Z,102392.45
2019-03-19T16:33:05.475Z,102386.22
2019-03-19T16:35:35.700Z,102391.58
2019-03-19T16:38:07.430Z,102390.21
2019-03-19T16:40:42.900Z,102395.09
2019-03-19T16:43:21.809Z,102398.42
2019-03-19T16:45:52.417Z,102398.02
2019-03-19T16:48:23.050Z,102400.33
2019-03-19T16:50:56.224Z,102406.02
2019-03-19T16:53:26.810Z,102403.33
2019-03-19T16:55:57.947Z,102399.31
2019-03-19T16:58:28.422Z,102410.09
2019-03-19T17:00:59.365Z,102415.59
2019-03-19T17:03:29.595Z,102417.49
2019-03-19T17:06:00.209Z,102415.84
2019-03-19T17:08:30.424Z,102419.39
2019-03-19T17:11:03.835Z,102420.82
2019-03-19T17:13:34.070Z,102412.27
2019-03-19T17:16:04.375Z,102417.69
2019-03-19T17:18:34.615Z,102419.84
2019-03-19T17:21:05.785Z,102419.95
2019-03-19T17:23:35.956Z,102426.26
2019-03-19T17:26:09.300Z,102429.84
2019-03-19T17:28:41.397Z,102436.59
2019-03-19T17:31:13.397Z,102437.19
2019-03-19T17:33:45.067Z,102438.55
2019-03-19T17:36:16.314Z,102439.05
2019-03-19T17:38:46.899Z,102446.21
2019-03-19T17:41:18.016Z,102442.72
2019-03-19T17:43:49.160Z,102444.12
2019-03-19T17:46:20.931Z,102449.12
2019-03-19T17:48:52.326Z,102450.52
2019-03-19T17:51:23.955Z,102444.03
2019-03-19T17:53:57.510Z,102456.42
2019-03-19T17:56:46.846Z,102449.83
2019-03-19T17:59:20.377Z,102450.41
2019-03-19T18:01:52.108Z,102447.37
2019-03-19T18:04:22.325Z,102458.06
2019-03-19T18:06:52.510Z,102463.16
2019-03-19T18:09:23.825Z,102466.72
2019-03-19T18:11:55.872Z,102464.95
2019-03-19T18:14:28.841Z,102464.57
2019-03-19T18:16:59.381Z,102467.36
2019-03-19T18:19:30.442Z,102479.31
2019-03-19T18:22:01.916Z,102478.48
2019-03-19T18:24:32.203Z,102480.81
2019-03-19T18:27:02.407Z,102480.87
2019-03-19T18:29:35.592Z,102484.89
2019-03-19T18:32:06.195Z,102484.50
2019-03-19T18:34:37.530Z,102485.95
2019-03-19T18:37:09.019Z,102488.22
2019-03-19T18:39:40.696Z,102487.84
2019-03-19T18:42:12.196Z,102484.72
2019-03-19T18:44:43.649Z,102496.29
2019-03-19T18:47:14.206Z,102499.88
2019-03-19T18:49:44.803Z,102502.08
2019-03-19T18:52:16.405Z,102504.33
2019-03-19T18:54:50.348Z,102507.01
2019-03-19T18:57:21.630Z,102505.33
2019-03-19T18:59:53.723Z,102503.96
2019-03-19T19:02:25.333Z,102506.66
2019-03-19T19:05:19.817Z,102503.11
2019-03-19T19:07:51.685Z,102516.03
2019-03-19T19:10:23.085Z,102513.38
2019-03-19T19:12:54.867Z,102521.81
2019-03-19T19:15:26.300Z,102517.46
2019-03-19T19:17:56.834Z,102524.52
2019-03-19T19:20:29.788Z,102528.13
2019-03-19T19:23:03.047Z,102527.67
2019-03-19T19:25:34.153Z,102535.67
2019-03-19T19:28:04.640Z,102531.70
2019-03-19T19:30:38.231Z,102535.27
2019-03-19T19:33:08.471Z,102536.59
2019-03-19T19:35:40.046Z,102542.45
2019-03-19T19:38:10.567Z,102537.56
2019-03-19T19:40:41.898Z,102541.13
2019-03-19T19:43:12.052Z,102541.64
2019-03-19T19:45:43.648Z,102550.95
2019-03-19T19:48:14.309Z,102545.59
2019-03-19T19:50:53.289Z,102554.47
2019-03-19T19:53:27.590Z,102555.84
2019-03-19T19:55:58.214Z,102553.66
2019-03-19T19:58:28.793Z,102561.64
2019-03-19T20:00:59.957Z,102555.44
2019-03-19T20:03:31.090Z,102561.64
2019-03-19T20:06:01.848Z,102562.98
2019-03-19T20:08:32.100Z,102565.20
2019-03-19T20:11:02.299Z,102560.35
2019-03-19T20:13:32.581Z,102551.99
2019-03-19T20:16:03.574Z,102572.33
2019-03-19T20:18:34.666Z,102567.89
2019-03-19T20:21:05.475Z,102571.92
2019-03-19T20:23:45.301Z,102577.69
2019-03-19T20:26:17.522Z,102576.36
2019-03-19T20:28:48.665Z,102578.61
2019-03-19T20:31:20.452Z,102579.97
2019-03-19T20:33:50.620Z,102581.30
2019-03-19T20:36:21.281Z,102586.17
2019-03-19T20:38:52.653Z,102588.42
2019-03-19T20:41:23.205Z,102588.42
2019-03-19T20:43:54.344Z,102592.89
2019-03-19T20:46:26.133Z,102597.77
2019-03-19T20:48:59.027Z,102597.77
2019-03-19T20:51:30.063Z,102603.53
2019-03-19T20:54:00.210Z,102602.23
2019-03-19T20:56:42.832Z,102613.31
2019-03-19T20:59:15.889Z,102618.27
2019-03-19T21:01:47.125Z,102623.18
2019-03-19T21:04:17.702Z,102619.25
2019-03-19T21:06:49.089Z,102616.16
2019-03-19T21:09:21.171Z,102620.17
2019-03-19T21:11:53.447Z,102617.53
2019-03-19T21:14:25.553Z,102609.56
2019-03-19T21:17:02.104Z,102619.70
2019-03-19T21:19:33.760Z,102623.67
2019-03-19T21:22:04.872Z,102625.45
2019-03-19T21:24:35.088Z,102633.40
2019-03-19T21:27:05.327Z,102635.62
2019-03-19T21:29:36.065Z,102634.28
2019-03-19T21:32:07.872Z,102635.66
2019-03-19T21:34:38.635Z,102644.50
2019-03-19T21:37:10.141Z,102649.39
2019-03-19T21:39:40.523Z,102649.84
2019-03-19T21:42:12.348Z,102656.08
2019-03-19T21:44:43.517Z,102656.50
2019-03-19T21:47:15.510Z,102654.30
2019-03-19T21:49:47.606Z,102659.63
2019-03-19T21:52:18.287Z,102657.83
2019-03-19T21:54:48.541Z,102659.59
2019-03-19T21:57:18.855Z,102662.27
2019-03-19T21:59:50.167Z,102665.37
2019-03-19T22:02:21.949Z,102664.93
2019-03-19T22:04:53.851Z,102659.11
2019-03-19T22:07:24.148Z,102665.77
2019-03-19T22:09:55.209Z,102666.20
2019-03-19T22:12:25.487Z,102663.09
2019-03-19T22:14:55.967Z,102664.84
2019-03-19T22:17:27.364Z,102662.53
2019-03-19T22:19:58.570Z,102656.44
2019-03-19T22:22:29.922Z,102661.75
2019-03-19T22:25:01.026Z,102664.84
2019-03-19T22:27:31.630Z,102661.25
2019-03-19T22:30:01.861Z,102665.25
2019-03-19T22:32:34.782Z,102666.99
2019-03-19T22:35:05.719Z,102674.06
2019-03-19T22:37:37.802Z,102660.80
2019-03-19T22:40:11.781Z,102664.36
2019-03-19T22:42:43.153Z,102668.62
2019-03-19T22:45:14.944Z,102664.05
2019-03-19T22:47:46.834Z,102666.63
2019-03-19T22:50:18.048Z,102668.33
2019-03-19T22:52:48.431Z,102669.36
2019-03-19T22:55:28.591Z,102676.34
2019-03-19T22:57:52.794Z,102677.14
2019-03-19T23:00:40.297Z,102686.71
2019-03-19T23:03:12.924Z,102685.98
2019-03-19T23:05:43.850Z,102687.34
2019-03-19T23:08:14.456Z,102686.95
2019-03-19T23:10:45.076Z,102687.80
2019-03-19T23:13:17.675Z,102690.86
2019-03-19T23:15:47.941Z,102690.69
2019-03-19T23:18:18.492Z,102693.16
2019-03-19T23:20:54.333Z,102699.02
2019-03-19T23:23:24.922Z,102699.70
2019-03-19T23:25:55.954Z,102696.55
2019-03-19T23:28:26.146Z,102704.59
2019-03-19T23:30:57.336Z,102702.14
2019-03-19T23:33:27.970Z,102706.22
2019-03-19T23:35:59.281Z,102703.86
2019-03-19T23:38:32.467Z,102706.47
2019-03-19T23:41:03.181Z,102703.75
2019-03-19T23:43:33.352Z,102706.28
2019-03-19T23:46:03.602Z,102700.48
2019-03-19T23:48:33.862Z,102694.41
2019-03-19T23:51:04.507Z,102690.31
2019-03-19T23:53:34.738Z,102685.30
2019-03-19T23:56:05.616Z,102685.83
2019-03-19T23:58:36.146Z,102693.45
